F/V Abraden — FGRQ — position and weather

sailwx.info

Track history (hours):
 
Tides and Currents Weather Stations Pressure Air Temp Water Temp Dewpoint Dewpoint Depression Visibility Wind Speed Wind Dir Waves Ship Positions

F/V Abraden

Last reported at 2017-Sep-19 11:44 UTC. Time now 2017-Sep-19 19:10 UTC.
Position N 47°31' W 004°06'.

Type: Fishing. MMSI: 228226000.

Date/timePositionNaut miles runAvg speedWind from/ knotsBaromVisibWave heightAir tempDewpointWater temp
2017-Sep-19 11:44N 47°31' W 004°06'10 1.2
2017-Sep-19 03:55N 47°37' W 003°55'10 2.4
2017-Sep-18 23:33N 47°46' W 004°01'19 2.3
2017-Sep-18 15:16N 47°28' W 004°06'1 3.6
2017-Sep-18 15:00N 47°28' W 004°05'3 2.3
2017-Sep-18 13:42N 47°30' W 004°09'1 0.4
2017-Sep-18 10:13N 47°30' W 004°07'1 3.2
2017-Sep-18 09:58N 47°30' W 004°06'2 3.3
2017-Sep-18 09:14N 47°31' W 004°03'1 3.4
2017-Sep-18 08:59N 47°32' W 004°01'4 2.0
2017-Sep-18 06:55N 47°28' W 004°00'2 2.6
2017-Sep-18 06:18N 47°27' W 004°03'1 2.9
2017-Sep-18 05:54N 47°29' W 004°03'2 3.4
2017-Sep-18 05:24N 47°29' W 004°00'1 3.3
2017-Sep-18 04:58N 47°29' W 003°58'2 3.4
2017-Sep-18 04:30N 47°28' W 003°56'2 3.3
2017-Sep-18 04:00N 47°28' W 003°54'2 3.2
2017-Sep-18 03:30N 47°29' W 003°52'4 6.4
2017-Sep-18 02:49N 47°33' W 003°52'2 7.1
2017-Sep-18 02:30N 47°35' W 003°52'4 6.9
2017-Sep-18 01:55N 47°39' W 003°53'10 7.0
2017-Sep-18 00:33N 47°48' W 003°56'  
2017-Sep-14 22:48N 47°27' W 004°05'4 0.9
2017-Sep-14 18:11N 47°31' W 004°04'1 3.1
2017-Sep-14 17:54N 47°31' W 004°03'2 2.8
2017-Sep-14 17:16N 47°30' W 004°01'0 0.7
2017-Sep-14 17:00N 47°30' W 004°00'2 2.9
2017-Sep-14 16:25N 47°29' W 003°58'4 2.7
2017-Sep-14 14:57N 47°29' W 004°04'3 1.8
2017-Sep-14 13:33N 47°31' W 004°03'1 3.0
2017-Sep-14 13:10N 47°31' W 004°01'1 3.1
2017-Sep-14 13:00N 47°31' W 004°01'2 3.8
2017-Sep-14 12:29N 47°33' W 003°58'4 7.2
2017-Sep-14 11:59N 47°36' W 003°56'10 7.3
2017-Sep-14 10:33N 47°46' W 003°56'  
Track history (hours):
 
Tides and Currents Weather Stations Pressure Air Temp Water Temp Dewpoint Dewpoint Depression Visibility Wind Speed Wind Dir Waves Ship Positions

F/V Abraden

Last reported at 2017-Sep-19 11:44 UTC. Time now 2017-Sep-19 19:10 UTC.
Position N 47°31' W 004°06'.

Type: Fishing. MMSI: 228226000.

Date/timePositionNaut miles runAvg speedWind from/ knotsBaromVisibWave heightAir tempDewpointWater temp
2017-Sep-19 11:44N 47°31' W 004°06'10 1.2
2017-Sep-19 03:55N 47°37' W 003°55'10 2.4
2017-Sep-18 23:33N 47°46' W 004°01'19 2.3
2017-Sep-18 15:16N 47°28' W 004°06'1 3.6
2017-Sep-18 15:00N 47°28' W 004°05'3 2.3
2017-Sep-18 13:42N 47°30' W 004°09'1 0.4
2017-Sep-18 10:13N 47°30' W 004°07'1 3.2
2017-Sep-18 09:58N 47°30' W 004°06'2 3.3
2017-Sep-18 09:14N 47°31' W 004°03'1 3.4
2017-Sep-18 08:59N 47°32' W 004°01'4 2.0
2017-Sep-18 06:55N 47°28' W 004°00'2 2.6
2017-Sep-18 06:18N 47°27' W 004°03'1 2.9
2017-Sep-18 05:54N 47°29' W 004°03'2 3.4
2017-Sep-18 05:24N 47°29' W 004°00'1 3.3
2017-Sep-18 04:58N 47°29' W 003°58'2 3.4
2017-Sep-18 04:30N 47°28' W 003°56'2 3.3
2017-Sep-18 04:00N 47°28' W 003°54'2 3.2
2017-Sep-18 03:30N 47°29' W 003°52'4 6.4
2017-Sep-18 02:49N 47°33' W 003°52'2 7.1
2017-Sep-18 02:30N 47°35' W 003°52'4 6.9
2017-Sep-18 01:55N 47°39' W 003°53'10 7.0
2017-Sep-18 00:33N 47°48' W 003°56'  
2017-Sep-14 22:48N 47°27' W 004°05'4 0.9
2017-Sep-14 18:11N 47°31' W 004°04'1 3.1
2017-Sep-14 17:54N 47°31' W 004°03'2 2.8
2017-Sep-14 17:16N 47°30' W 004°01'0 0.7
2017-Sep-14 17:00N 47°30' W 004°00'2 2.9
2017-Sep-14 16:25N 47°29' W 003°58'4 2.7
2017-Sep-14 14:57N 47°29' W 004°04'3 1.8
2017-Sep-14 13:33N 47°31' W 004°03'1 3.0
2017-Sep-14 13:10N 47°31' W 004°01'1 3.1
2017-Sep-14 13:00N 47°31' W 004°01'2 3.8
2017-Sep-14 12:29N 47°33' W 003°58'4 7.2
2017-Sep-14 11:59N 47°36' W 003°56'10 7.3
2017-Sep-14 10:33N 47°46' W 003°56'  

Dump ship's entire track history